createdAt,value
2022-10-12T00:01:09.879Z,12.10
2022-10-12T00:03:38.725Z,13.80
2022-10-12T00:06:08.999Z,16.10
2022-10-12T00:08:38.653Z,17.50
2022-10-12T00:11:11.052Z,14.50
2022-10-12T00:13:39.567Z,14.77
2022-10-12T00:16:09.885Z,13.03
2022-10-12T00:18:39.291Z,16.20
2022-10-12T00:21:09.434Z,14.67
2022-10-12T00:23:38.777Z,13.33
2022-10-12T00:26:10.606Z,15.03
2022-10-12T00:28:39.450Z,14.50
2022-10-12T00:31:08.803Z,14.87
2022-10-12T00:33:38.529Z,15.60
2022-10-12T00:36:15.519Z,11.60
2022-10-12T00:38:44.258Z,12.27
2022-10-12T00:41:15.072Z,12.17
2022-10-12T00:43:45.108Z,10.70
2022-10-12T00:46:17.510Z,18.27
2022-10-12T00:48:47.258Z,15.60
2022-10-12T00:51:16.765Z,11.53
2022-10-12T00:53:49.580Z,16.00
2022-10-12T00:56:20.814Z,17.83
2022-10-12T00:58:50.094Z,19.00
2022-10-12T01:01:19.435Z,17.10
2022-10-12T01:03:48.671Z,16.43
2022-10-12T01:06:17.324Z,17.93
2022-10-12T01:08:46.410Z,12.43
2022-10-12T01:11:14.676Z,16.77
2022-10-12T01:13:44.294Z,16.43
2022-10-12T01:16:19.843Z,15.67
2022-10-12T01:18:51.794Z,18.40
2022-10-12T01:21:21.299Z,19.43
2022-10-12T01:24:25.247Z,16.73
2022-10-12T01:27:31.189Z,14.27
2022-10-12T01:30:18.782Z,11.57
2022-10-12T01:36:03.500Z,11.33
2022-10-12T01:38:41.476Z,8.77
2022-10-12T01:41:14.379Z,12.00
2022-10-12T01:43:44.557Z,11.93
2022-10-12T01:46:43.438Z,17.33
2022-10-12T01:49:12.138Z,12.93
2022-10-12T01:51:48.169Z,10.10
2022-10-12T01:54:23.891Z,16.23
2022-10-12T01:56:56.776Z,16.50
2022-10-12T01:59:34.705Z,12.43
2022-10-12T02:02:09.492Z,14.50
2022-10-12T02:04:40.352Z,9.10
2022-10-12T02:07:12.262Z,9.33
2022-10-12T02:09:41.213Z,14.67
2022-10-12T02:12:13.452Z,11.83
2022-10-12T02:14:44.534Z,13.93
2022-10-12T02:17:16.526Z,15.43
2022-10-12T02:19:46.394Z,15.03
2022-10-12T02:22:16.193Z,16.93
2022-10-12T02:24:48.011Z,15.97
2022-10-12T02:27:17.081Z,15.13
2022-10-12T02:29:47.266Z,13.53
2022-10-12T02:32:20.713Z,15.97
2022-10-12T02:34:53.277Z,10.67
2022-10-12T02:37:28.140Z,17.77
2022-10-12T02:39:58.784Z,14.87
2022-10-12T02:42:32.102Z,14.40
2022-10-12T02:45:06.214Z,12.33
2022-10-12T02:47:36.796Z,17.73
2022-10-12T02:50:06.627Z,12.07
2022-10-12T02:52:35.103Z,9.53
2022-10-12T02:55:03.758Z,12.17
2022-10-12T02:57:32.143Z,14.77
2022-10-12T03:00:00.412Z,14.97
2022-10-12T03:02:28.648Z,10.10
2022-10-12T03:04:58.302Z,11.47
2022-10-12T03:07:26.612Z,12.97
2022-10-12T03:09:54.920Z,10.93
2022-10-12T03:12:23.270Z,11.67
2022-10-12T03:14:51.555Z,15.17
2022-10-12T03:17:19.867Z,8.77
2022-10-12T03:19:48.150Z,9.67
2022-10-12T03:22:17.828Z,10.90
2022-10-12T03:24:46.085Z,10.23
2022-10-12T03:27:14.360Z,11.03
2022-10-12T03:29:42.628Z,19.60
2022-10-12T03:32:10.916Z,17.37
2022-10-12T03:34:39.192Z,11.20
2022-10-12T03:37:07.648Z,9.20
2022-10-12T03:39:37.431Z,11.23
2022-10-12T03:42:05.836Z,12.00
2022-10-12T03:44:34.194Z,8.47
2022-10-12T03:47:02.548Z,13.17
2022-10-12T03:49:30.815Z,12.53
2022-10-12T03:51:59.467Z,10.07
2022-10-12T03:54:27.724Z,9.37
2022-10-12T03:56:57.346Z,15.73
2022-10-12T03:59:25.668Z,9.73
2022-10-12T04:01:54.033Z,9.67
2022-10-12T04:04:22.468Z,9.77
2022-10-12T04:06:50.744Z,10.93
2022-10-12T04:09:19.056Z,9.57
2022-10-12T04:11:47.334Z,10.27
2022-10-12T04:14:16.932Z,12.23
2022-10-12T04:16:45.238Z,11.70
2022-10-12T04:19:14.177Z,12.10
2022-10-12T04:21:42.468Z,10.33
2022-10-12T04:24:10.721Z,12.43
2022-10-12T04:26:39.047Z,10.73
2022-10-12T04:29:07.363Z,13.73
2022-10-12T04:31:37.042Z,10.80
2022-10-12T04:34:05.343Z,11.80
2022-10-12T04:36:33.602Z,11.87
2022-10-12T04:39:02.009Z,11.33
2022-10-12T04:41:30.351Z,11.80
2022-10-12T04:43:58.994Z,11.47
2022-10-12T04:46:27.274Z,12.57
2022-10-12T04:48:58.692Z,10.13
2022-10-12T04:51:27.703Z,13.90
2022-10-12T04:53:55.964Z,14.70
2022-10-12T04:56:24.302Z,8.93
2022-10-12T04:58:52.568Z,11.60
2022-10-12T05:01:21.311Z,10.80
2022-10-12T05:03:49.621Z,9.10
2022-10-12T05:06:19.304Z,14.57
2022-10-12T05:08:47.592Z,13.10
2022-10-12T05:11:15.930Z,9.70
2022-10-12T05:13:44.261Z,12.03
2022-10-12T05:16:12.549Z,12.37
2022-10-12T05:18:40.870Z,16.57
2022-10-12T05:21:09.241Z,15.40
2022-10-12T05:23:38.918Z,11.57
2022-10-12T05:26:07.331Z,11.50
2022-10-12T05:28:40.531Z,12.70
2022-10-12T05:31:09.832Z,20.40
2022-10-12T05:33:38.425Z,10.33
2022-10-12T05:36:07.504Z,14.90
2022-10-12T05:38:35.916Z,17.70
2022-10-12T05:41:05.759Z,15.37
2022-10-12T05:43:34.198Z,12.37
2022-10-12T05:46:02.527Z,15.23
2022-10-12T05:48:30.831Z,16.93
2022-10-12T05:50:59.108Z,14.63
2022-10-12T05:53:27.456Z,12.67
2022-10-12T05:55:56.666Z,13.97
2022-10-12T05:58:27.288Z,16.97
2022-10-12T06:00:55.939Z,16.93
2022-10-12T06:03:26.226Z,22.70
2022-10-12T06:05:55.058Z,25.00
2022-10-12T06:08:23.374Z,27.93
2022-10-12T06:10:52.355Z,23.43
2022-10-12T06:13:20.669Z,15.57
2022-10-12T06:15:50.438Z,18.70
2022-10-12T06:18:19.278Z,16.33
2022-10-12T06:20:49.128Z,11.90
2022-10-12T06:23:17.601Z,13.10
2022-10-12T06:25:46.891Z,15.77
2022-10-12T06:28:15.657Z,17.33
2022-10-12T06:30:44.439Z,16.20
2022-10-12T06:33:14.067Z,18.70
2022-10-12T06:35:42.378Z,13.50
2022-10-12T06:38:10.703Z,13.97
2022-10-12T06:40:39.051Z,14.40
2022-10-12T06:43:07.356Z,14.00
2022-10-12T06:45:36.079Z,15.67
2022-10-12T06:48:04.957Z,15.97
2022-10-12T06:50:35.203Z,12.00
2022-10-12T06:53:03.469Z,13.83
2022-10-12T06:55:31.775Z,11.83
2022-10-12T06:58:00.312Z,9.83
2022-10-12T07:00:28.649Z,27.97
2022-10-12T07:02:57.278Z,14.20
2022-10-12T07:05:25.598Z,13.93
2022-10-12T07:07:55.230Z,15.20
2022-10-12T07:10:24.947Z,14.40
2022-10-12T07:12:53.281Z,15.83
2022-10-12T07:15:21.600Z,20.53
2022-10-12T07:17:50.088Z,43.50
2022-10-12T07:20:18.448Z,16.20
2022-10-12T07:22:46.737Z,16.00
2022-10-12T07:25:16.624Z,15.83
2022-10-12T07:27:48.235Z,18.17
2022-10-12T07:30:16.556Z,18.90
2022-10-12T07:32:46.409Z,16.40
2022-10-12T07:35:14.971Z,14.10
2022-10-12T07:37:43.350Z,11.57
2022-10-12T07:40:11.748Z,15.67
2022-10-12T07:42:59.202Z,13.00
2022-10-12T07:45:29.805Z,16.20
2022-10-12T07:47:58.114Z,14.03
2022-10-12T07:50:26.448Z,13.57
2022-10-12T07:52:54.704Z,14.93
2022-10-12T07:55:23.107Z,16.67
2022-10-12T07:57:52.796Z,23.03
2022-10-12T08:00:22.149Z,20.07
2022-10-12T08:02:50.444Z,21.30
2022-10-12T08:05:21.157Z,27.93
2022-10-12T08:07:49.647Z,20.17
2022-10-12T08:10:18.938Z,23.00
2022-10-12T08:12:51.862Z,22.50
2022-10-12T08:15:21.972Z,23.10
2022-10-12T08:17:51.309Z,19.77
2022-10-12T08:20:19.930Z,13.20
2022-10-12T08:22:48.637Z,26.57
2022-10-12T08:25:17.150Z,26.77
2022-10-12T08:27:45.541Z,20.10
2022-10-12T08:30:14.836Z,14.13
2022-10-12T08:32:44.771Z,21.27
2022-10-12T08:35:13.095Z,17.37
2022-10-12T08:37:41.760Z,22.90
2022-10-12T08:40:11.710Z,23.43
2022-10-12T08:42:48.980Z,20.27
2022-10-12T08:45:30.700Z,24.23
2022-10-12T08:48:02.434Z,25.87
2022-10-12T08:50:32.922Z,26.73
2022-10-12T08:53:04.940Z,23.93
2022-10-12T08:55:37.823Z,24.23
2022-10-12T08:58:15.687Z,26.43
2022-10-12T09:00:45.187Z,23.27
2022-10-12T09:03:24.897Z,15.10
2022-10-12T09:05:56.990Z,25.43
2022-10-12T09:08:32.828Z,15.27
2022-10-12T09:11:11.197Z,15.90
2022-10-12T09:13:44.174Z,19.57
2022-10-12T09:16:20.666Z,26.17
2022-10-12T09:18:54.977Z,28.63
2022-10-12T09:21:24.921Z,28.40
2022-10-12T09:23:53.399Z,35.30
2022-10-12T09:26:36.411Z,18.07
2022-10-12T09:29:20.724Z,20.50
2022-10-12T09:32:02.153Z,25.50
2022-10-12T09:34:31.849Z,23.57
2022-10-12T09:37:00.622Z,32.60
2022-10-12T09:39:31.649Z,23.63
2022-10-12T09:41:59.918Z,29.67
2022-10-12T09:44:33.048Z,28.80
2022-10-12T09:47:02.575Z,19.93
2022-10-12T09:49:42.876Z,26.37
2022-10-12T09:52:11.767Z,20.20
2022-10-12T09:54:41.112Z,28.93
2022-10-12T09:57:09.506Z,22.97
2022-10-12T09:59:40.052Z,28.70
2022-10-12T10:02:16.532Z,21.87
2022-10-12T10:04:48.495Z,23.93
2022-10-12T10:07:27.336Z,24.40
2022-10-12T10:10:14.723Z,32.90
2022-10-12T10:12:48.718Z,28.93
2022-10-12T10:15:23.731Z,26.93
2022-10-12T10:17:54.358Z,27.87
2022-10-12T10:20:29.873Z,31.77
2022-10-12T10:22:59.806Z,33.33
2022-10-12T10:25:28.109Z,20.40
2022-10-12T10:28:21.782Z,25.93
2022-10-12T10:31:03.315Z,18.40
2022-10-12T10:33:32.142Z,37.07
2022-10-12T10:36:08.055Z,28.17
2022-10-12T10:38:55.090Z,28.30
2022-10-12T10:41:27.531Z,25.63
2022-10-12T10:44:05.531Z,27.40
2022-10-12T10:46:35.485Z,21.37
2022-10-12T10:49:06.315Z,26.27
2022-10-12T10:51:45.299Z,24.60
2022-10-12T10:54:21.760Z,28.50
2022-10-12T10:56:51.267Z,25.53
2022-10-12T10:59:27.220Z,17.33
2022-10-12T11:01:57.706Z,26.67
2022-10-12T11:04:30.497Z,22.50
2022-10-12T11:07:03.911Z,25.13
2022-10-12T11:09:39.615Z,28.83
2022-10-12T11:12:11.960Z,29.23
2022-10-12T11:14:44.917Z,34.03
2022-10-12T11:17:18.501Z,29.30
2022-10-12T11:19:51.115Z,28.13
2022-10-12T11:22:23.318Z,29.77
2022-10-12T11:24:55.343Z,20.80
2022-10-12T11:27:26.625Z,28.87
2022-10-12T11:30:08.790Z,28.07
2022-10-12T11:32:39.243Z,18.53
2022-10-12T11:35:11.561Z,21.83
2022-10-12T11:37:44.490Z,29.83
2022-10-12T11:40:30.970Z,26.80
2022-10-12T11:43:14.173Z,25.00
2022-10-12T11:45:47.067Z,26.53
2022-10-12T11:48:26.260Z,29.80
2022-10-12T11:51:01.297Z,30.83
2022-10-12T11:53:37.495Z,23.30
2022-10-12T11:56:10.488Z,25.17
2022-10-12T11:59:01.085Z,22.23
2022-10-12T12:02:01.525Z,27.23
2022-10-12T12:04:47.406Z,27.53
2022-10-12T12:07:45.191Z,29.13
2022-10-12T12:10:51.338Z,37.10
2022-10-12T12:13:23.174Z,25.33
2022-10-12T12:16:32.638Z,25.37
2022-10-12T12:19:37.278Z,35.50
2022-10-12T12:22:43.219Z,26.03
2022-10-12T12:25:30.232Z,34.30
2022-10-12T12:28:01.423Z,31.77
2022-10-12T12:30:36.246Z,26.20
2022-10-12T12:33:07.494Z,19.10
2022-10-12T12:35:38.982Z,24.20
2022-10-12T12:38:17.502Z,23.67
2022-10-12T12:41:01.552Z,27.97
2022-10-12T12:43:56.299Z,27.07
2022-10-12T12:46:27.293Z,18.83
2022-10-12T12:49:00.285Z,27.83
2022-10-12T12:51:37.448Z,23.43
2022-10-12T12:54:08.806Z,25.93
2022-10-12T12:56:42.205Z,27.07
2022-10-12T12:59:29.760Z,22.60
2022-10-12T13:02:18.230Z,23.60
2022-10-12T13:05:09.019Z,24.73
2022-10-12T13:07:53.573Z,25.77
2022-10-12T13:10:31.584Z,27.80
2022-10-12T13:13:38.704Z,27.43
2022-10-12T13:16:36.551Z,22.23
2022-10-12T13:19:12.366Z,22.13
2022-10-12T13:21:41.786Z,25.60
2022-10-12T13:24:16.611Z,21.33
2022-10-12T13:26:47.143Z,17.20
2022-10-12T13:29:21.108Z,23.27
2022-10-12T13:31:53.123Z,32.33
2022-10-12T13:34:24.683Z,24.37
2022-10-12T13:36:59.661Z,26.07
2022-10-12T13:39:29.336Z,27.57
2022-10-12T13:41:59.831Z,29.00
2022-10-12T13:44:29.707Z,26.83
2022-10-12T13:47:04.402Z,28.93
2022-10-12T13:49:36.666Z,30.13
2022-10-12T13:52:20.182Z,27.57
2022-10-12T13:54:49.374Z,25.20
2022-10-12T13:57:20.684Z,27.17
2022-10-12T13:59:52.445Z,28.97
2022-10-12T14:02:24.892Z,25.50
2022-10-12T14:04:54.875Z,27.10
2022-10-12T14:07:25.317Z,25.53
2022-10-12T14:09:56.714Z,20.53
2022-10-12T14:12:25.839Z,28.67
2022-10-12T14:14:54.478Z,28.17
2022-10-12T14:17:24.887Z,24.03
2022-10-12T14:19:55.127Z,31.17
2022-10-12T14:22:26.230Z,28.10
2022-10-12T14:25:08.450Z,28.87
2022-10-12T14:27:38.799Z,36.97
2022-10-12T14:30:15.953Z,20.00
2022-10-12T14:32:56.129Z,25.97
2022-10-12T14:35:28.963Z,24.50
2022-10-12T14:37:57.747Z,26.07
2022-10-12T14:40:32.801Z,24.30
2022-10-12T14:43:04.424Z,27.30
2022-10-12T14:45:33.934Z,23.73
2022-10-12T14:48:05.445Z,24.27
2022-10-12T14:50:33.944Z,27.87
2022-10-12T14:53:04.764Z,20.03
2022-10-12T14:55:34.590Z,27.30
2022-10-12T14:58:03.611Z,29.67
2022-10-12T15:00:34.121Z,24.77
2022-10-12T15:03:05.569Z,21.57
2022-10-12T15:05:34.597Z,25.90
2022-10-12T15:08:07.205Z,27.40
2022-10-12T15:10:36.357Z,21.43
2022-10-12T15:13:04.874Z,22.87
2022-10-12T15:15:39.372Z,25.00
2022-10-12T15:18:09.337Z,17.23
2022-10-12T15:20:38.389Z,23.73
2022-10-12T15:23:06.876Z,23.07
2022-10-12T15:25:42.041Z,21.60
2022-10-12T15:28:10.497Z,20.33
2022-10-12T15:31:16.838Z,22.20
2022-10-12T15:33:47.409Z,27.20
2022-10-12T15:36:15.716Z,18.80
2022-10-12T15:38:43.999Z,18.23
2022-10-12T15:41:17.030Z,24.40
2022-10-12T15:43:45.413Z,23.40
2022-10-12T15:46:13.676Z,23.67
2022-10-12T15:48:43.825Z,25.77
2022-10-12T15:51:18.900Z,24.70
2022-10-12T15:56:50.768Z,25.97
2022-10-12T15:59:19.174Z,25.67
2022-10-12T16:01:47.663Z,23.77
2022-10-12T16:04:16.430Z,25.40
2022-10-12T16:06:46.203Z,25.90
2022-10-12T16:09:14.690Z,30.43
2022-10-12T16:11:45.599Z,26.53
2022-10-12T16:14:15.667Z,28.13
2022-10-12T16:16:44.012Z,30.50
2022-10-12T16:19:12.651Z,29.00
2022-10-12T16:21:41.878Z,30.07
2022-10-12T16:24:12.219Z,31.70
2022-10-12T16:26:44.984Z,29.67
2022-10-12T16:29:13.644Z,29.93
2022-10-12T16:34:16.385Z,32.83
2022-10-12T16:36:44.960Z,29.10
2022-10-12T16:39:15.611Z,26.93
2022-10-12T16:41:44.508Z,26.93
2022-10-12T16:44:13.074Z,30.80
2022-10-12T16:46:41.569Z,29.97
2022-10-12T16:49:10.185Z,27.10
2022-10-12T16:51:38.769Z,26.57
2022-10-12T16:54:07.561Z,28.17
2022-10-12T16:56:39.892Z,29.03
2022-10-12T16:59:08.529Z,29.13
2022-10-12T17:01:36.986Z,30.33
2022-10-12T17:04:05.447Z,27.57
2022-10-12T17:06:35.015Z,29.87
2022-10-12T17:09:03.574Z,29.20
2022-10-12T17:11:32.907Z,28.37
2022-10-12T17:14:03.915Z,28.37
2022-10-12T17:16:51.962Z,27.10
2022-10-12T17:19:21.909Z,28.97
2022-10-12T17:21:52.433Z,33.50
2022-10-12T17:24:24.187Z,30.57
2022-10-12T17:26:52.825Z,29.17
2022-10-12T17:29:23.173Z,31.00
2022-10-12T17:31:52.509Z,28.13
2022-10-12T17:34:22.986Z,30.10
2022-10-12T17:36:52.228Z,29.43
2022-10-12T17:39:21.233Z,30.57
2022-10-12T17:41:49.732Z,27.27
2022-10-12T17:44:18.290Z,31.30
2022-10-12T17:46:48.219Z,32.33
2022-10-12T17:49:24.770Z,28.17
2022-10-12T17:51:53.970Z,29.43
2022-10-12T17:54:23.734Z,32.07
2022-10-12T17:56:52.382Z,34.87
2022-10-12T17:59:21.262Z,32.87
2022-10-12T18:01:52.347Z,29.63
2022-10-12T18:04:21.573Z,31.23
2022-10-12T18:06:50.129Z,33.03
2022-10-12T18:09:18.657Z,33.37
2022-10-12T18:11:47.215Z,31.07
2022-10-12T18:14:15.720Z,33.40
2022-10-12T18:16:44.034Z,30.80
2022-10-12T18:19:14.173Z,33.07
2022-10-12T18:21:42.630Z,30.37
2022-10-12T18:24:16.471Z,26.73
2022-10-12T18:26:47.409Z,30.17
2022-10-12T18:29:19.236Z,29.93
2022-10-12T18:31:47.768Z,33.10
2022-10-12T18:34:17.466Z,36.20
2022-10-12T18:36:45.923Z,34.23
2022-10-12T18:39:14.344Z,32.40
2022-10-12T18:41:42.886Z,34.20
2022-10-12T18:44:12.413Z,35.17
2022-10-12T18:46:40.850Z,34.33
2022-10-12T18:49:10.375Z,33.30
2022-10-12T18:51:41.902Z,38.73
2022-10-12T18:54:12.766Z,39.67
2022-10-12T18:56:41.782Z,37.40
2022-10-12T18:59:11.758Z,38.53
2022-10-12T19:01:40.991Z,34.17
2022-10-12T19:04:09.448Z,37.07
2022-10-12T19:06:42.369Z,29.63
2022-10-12T19:09:12.725Z,34.00
2022-10-12T19:11:41.154Z,35.40
2022-10-12T19:14:13.670Z,35.07
2022-10-12T19:16:42.445Z,34.30
2022-10-12T19:19:18.186Z,37.67
2022-10-12T19:21:51.144Z,33.33
2022-10-12T19:24:20.713Z,31.50
2022-10-12T19:26:50.216Z,37.13
2022-10-12T19:29:18.718Z,39.00
2022-10-12T19:31:48.805Z,37.20
2022-10-12T19:34:19.747Z,31.70
2022-10-12T19:36:49.622Z,33.70
2022-10-12T19:39:20.344Z,35.30
2022-10-12T19:41:49.662Z,38.03
2022-10-12T19:44:19.203Z,34.43
2022-10-12T19:46:49.111Z,34.07
2022-10-12T19:49:18.784Z,34.03
2022-10-12T19:51:48.009Z,34.20
2022-10-12T19:54:18.000Z,36.37
2022-10-12T19:56:46.882Z,41.27
2022-10-12T19:59:15.484Z,36.30
2022-10-12T20:01:47.909Z,34.07
2022-10-12T20:04:16.431Z,36.83
2022-10-12T20:06:44.953Z,29.90
2022-10-12T20:09:13.638Z,36.07
2022-10-12T20:11:43.467Z,31.03
2022-10-12T20:14:12.010Z,33.93
2022-10-12T20:16:40.621Z,36.07
2022-10-12T20:19:09.088Z,34.83
2022-10-12T20:21:37.774Z,35.90
2022-10-12T20:24:09.495Z,34.63
2022-10-12T20:26:38.476Z,35.33
2022-10-12T20:29:08.867Z,35.80
2022-10-12T20:31:37.404Z,36.00
2022-10-12T20:34:06.087Z,40.27
2022-10-12T20:36:34.751Z,39.73
2022-10-12T20:39:03.286Z,35.17
2022-10-12T20:41:32.541Z,35.87
2022-10-12T20:44:01.885Z,39.33
2022-10-12T20:46:31.758Z,35.37
2022-10-12T20:49:01.664Z,36.20
2022-10-12T20:51:33.467Z,36.57
2022-10-12T20:54:02.939Z,41.73
2022-10-12T20:56:33.057Z,38.10
2022-10-12T20:59:02.536Z,34.80
2022-10-12T21:01:33.291Z,32.83
2022-10-12T21:04:01.978Z,38.70
2022-10-12T21:06:30.542Z,38.60
2022-10-12T21:08:59.360Z,33.33
2022-10-12T21:11:28.016Z,34.63
2022-10-12T21:13:56.460Z,36.40
2022-10-12T21:16:25.323Z,37.47
2022-10-12T21:18:56.405Z,37.27
2022-10-12T21:21:25.057Z,37.27
2022-10-12T21:23:55.281Z,34.77
2022-10-12T21:26:25.347Z,32.30
2022-10-12T21:28:54.755Z,35.40
2022-10-12T21:31:27.051Z,36.40
2022-10-12T21:33:59.981Z,38.00
2022-10-12T21:36:29.671Z,35.07
2022-10-12T21:38:58.239Z,34.17
2022-10-12T21:41:28.178Z,36.33
2022-10-12T21:43:58.061Z,39.13
2022-10-12T21:46:27.797Z,39.13
2022-10-12T21:48:56.906Z,36.70
2022-10-12T21:51:27.519Z,38.13
2022-10-12T21:53:55.988Z,32.80
2022-10-12T21:56:26.003Z,32.23
2022-10-12T21:58:57.488Z,33.87
2022-10-12T22:01:28.023Z,33.03
2022-10-12T22:03:57.591Z,33.50
2022-10-12T22:06:29.013Z,40.10
2022-10-12T22:08:59.668Z,36.23
2022-10-12T22:11:30.444Z,34.83
2022-10-12T22:14:00.432Z,33.00
2022-10-12T22:16:29.089Z,35.13
2022-10-12T22:18:58.369Z,32.17
2022-10-12T22:21:36.168Z,35.20
2022-10-12T22:24:04.979Z,35.77
2022-10-12T22:26:33.560Z,31.70
2022-10-12T22:29:03.719Z,34.70
2022-10-12T22:31:32.249Z,35.53
2022-10-12T22:34:00.647Z,36.93
2022-10-12T22:36:32.075Z,34.17
2022-10-12T22:39:05.434Z,34.40
2022-10-12T22:41:33.905Z,35.53
2022-10-12T22:44:02.324Z,35.13
2022-10-12T22:46:30.846Z,34.40
2022-10-12T22:48:59.499Z,37.47
2022-10-12T22:51:31.539Z,35.13
2022-10-12T22:54:00.824Z,34.70
2022-10-12T22:56:30.597Z,30.47
2022-10-12T22:59:00.914Z,30.10
2022-10-12T23:01:29.814Z,32.73
2022-10-12T23:03:58.289Z,40.10
2022-10-12T23:06:27.150Z,29.77
2022-10-12T23:08:55.422Z,34.93
2022-10-12T23:11:26.226Z,34.30
2022-10-12T23:13:56.734Z,32.47
2022-10-12T23:16:27.432Z,33.33
2022-10-12T23:18:59.224Z,34.93
2022-10-12T23:21:28.533Z,30.40
2022-10-12T23:23:56.940Z,31.83
2022-10-12T23:26:26.052Z,28.03
2022-10-12T23:28:56.295Z,24.43
2022-10-12T23:31:26.722Z,27.63
2022-10-12T23:33:56.944Z,26.17
2022-10-12T23:36:25.365Z,25.13
2022-10-12T23:38:53.905Z,26.53
2022-10-12T23:41:22.249Z,26.33
2022-10-12T23:43:50.619Z,28.97
2022-10-12T23:46:20.286Z,32.00
2022-10-12T23:48:48.688Z,28.87
2022-10-12T23:51:17.000Z,32.53
2022-10-12T23:53:45.389Z,30.27
2022-10-12T23:56:14.136Z,30.67
2022-10-12T23:58:42.595Z,32.80
